Time;durP1;ratioP1;P1;durP2;ratioP2;P2;SDS_P1;SDS_P2;PMS_P1;PMS_P2;Temp;Humidity;BMP_temperature;BMP_pressure;BME280_temperature;BME280_humidity;BME280_pressure;Samples;Min_cycle;Max_cycle;Signal;HPM_P1;HPM_P2
2021/10/07 00:02:18;;;;;;;;;;;8.70;99.90;;;7.52;99.44;96375.22;10525720;28;1875;-76
2021/10/07 00:07:21;;;;;;;;;;;8.70;99.90;;;7.53;99.17;96376.00;10525278;28;1912;-76
2021/10/07 00:12:24;;;;;;;;;;;8.70;99.90;;;7.53;99.73;96371.47;10528561;28;2003;-76
2021/10/07 00:17:26;;;;;;;;;;;8.70;99.90;;;7.55;99.69;96371.22;10523388;28;2019;-74
2021/10/07 00:22:29;;;;;;;;;;;8.70;99.90;;;7.57;99.52;96371.78;10521037;28;2063;-75
2021/10/07 00:27:32;;;;;;;;;;;8.70;99.90;;;7.59;99.66;96365.16;10540986;28;1942;-75
2021/10/07 00:32:38;;;;;;;;;;;8.70;99.90;;;7.66;99.67;96364.22;10522649;28;1999;-75
2021/10/07 00:43:02;;;;;;;;;;;8.90;99.90;;;7.96;97.64;96372.78;10522042;28;2060;-75
2021/10/07 00:48:05;;;;;;;;;;;9.00;99.90;;;8.08;97.08;96376.19;10522613;28;1909;-75
2021/10/07 00:53:08;;;;;;;;;;;9.10;99.90;;;8.17;96.39;96367.75;10528276;28;1913;-75
2021/10/07 00:58:11;;;;;;;;;;;9.20;99.90;;;8.27;96.34;96366.06;10515058;28;1936;-75
2021/10/07 01:03:14;;;;;;;;;;;9.30;99.90;;;8.26;95.89;96375.13;10520127;28;2064;-75
2021/10/07 01:08:17;;;;;;;;;;;9.30;99.90;;;8.32;95.81;96365.28;10521603;28;2098;-75
2021/10/07 01:13:20;;;;;;;;;;;9.30;99.90;;;8.32;95.16;96362.63;10512801;28;2092;-75
2021/10/07 01:18:22;;;;;;;;;;;9.40;99.90;;;8.35;94.59;96368.34;10515360;28;2220;-75
2021/10/07 01:23:43;;;;;;;;;;;9.40;99.90;;;8.39;95.54;96368.66;10520248;28;2084;-75
2021/10/07 01:29:06;;;;;;;;;;;9.40;99.90;;;8.49;95.48;96368.81;10520867;28;2103;-75
2021/10/07 01:34:08;;;;;;;;;;;9.40;99.90;;;8.49;94.58;96368.81;10525305;28;2046;-74
2021/10/07 01:39:11;;;;;;;;;;;9.50;99.90;;;8.56;94.36;96364.09;10526981;28;2342;-75
2021/10/07 01:44:14;;;;;;;;;;;9.50;99.90;;;8.55;94.67;96356.31;10535049;28;2092;-76
2021/10/07 01:49:17;;;;;;;;;;;9.50;99.90;;;8.55;93.97;96362.47;10524675;28;2469;-74
2021/10/07 01:54:20;;;;;;;;;;;9.60;99.90;;;8.56;94.50;96358.72;10524417;28;2113;-76
2021/10/07 01:59:23;;;;;;;;;;;9.60;99.90;;;8.55;94.79;96349.06;10529005;28;1997;-76
2021/10/07 02:04:26;;;;;;;;;;;9.60;99.90;;;8.52;93.99;96354.91;10524122;28;1947;-76
2021/10/07 02:09:28;;;;;;;;;;;9.60;99.90;;;8.54;94.36;96358.16;10529764;28;1965;-76
2021/10/07 02:14:31;;;;;;;;;;;9.60;99.90;;;8.52;94.44;96354.91;10525771;28;1976;-74
2021/10/07 02:19:34;;;;;;;;;;;9.60;99.90;;;8.48;94.16;96372.56;10526933;28;1944;-76
2021/10/07 02:24:37;;;;;;;;;;;9.60;99.90;;;8.54;95.15;96370.75;10530001;28;2148;-75
2021/10/07 02:29:40;;;;;;;;;;;9.60;99.90;;;8.55;94.98;96367.81;10527080;28;1933;-74
2021/10/07 02:34:43;;;;;;;;;;;9.60;99.90;;;8.52;94.94;96376.34;10525118;28;2258;-75
2021/10/07 02:39:46;;;;;;;;;;;9.60;99.90;;;8.53;95.05;96380.66;10526872;28;2056;-75
2021/10/07 02:44:49;;;;;;;;;;;9.60;99.90;;;8.51;94.71;96377.41;10529737;28;2479;-74
2021/10/07 02:49:52;;;;;;;;;;;9.60;99.90;;;8.54;94.90;96384.16;10528353;28;1993;-75
2021/10/07 02:54:55;;;;;;;;;;;9.60;99.90;;;8.60;94.62;96388.53;10529182;28;2045;-75
2021/10/07 02:59:57;;;;;;;;;;;9.60;99.90;;;8.62;94.41;96392.59;10526004;28;2248;-75
2021/10/07 03:05:00;;;;;;;;;;;9.60;99.90;;;8.64;94.47;96395.81;10526242;28;2076;-75
2021/10/07 03:10:03;;;;;;;;;;;9.60;99.90;;;8.63;93.91;96402.25;10521352;28;2180;-79
2021/10/07 03:15:06;;;;;;;;;;;9.70;99.90;;;8.69;94.54;96394.28;10522419;28;2480;-75
2021/10/07 03:20:09;;;;;;;;;;;9.70;99.90;;;8.66;93.51;96404.44;10525733;28;2077;-76
2021/10/07 03:25:12;;;;;;;;;;;9.70;99.90;;;8.68;93.07;96411.44;10524232;28;1952;-75
2021/10/07 03:30:16;;;;;;;;;;;9.70;99.90;;;8.71;93.79;96409.03;10527581;28;1985;-76
2021/10/07 03:35:19;;;;;;;;;;;9.70;99.90;;;8.71;94.58;96409.03;10521595;28;2243;-76
2021/10/07 03:40:22;;;;;;;;;;;9.70;99.90;;;8.78;93.82;96403.50;10522341;28;1900;-74
2021/10/07 03:45:24;;;;;;;;;;;9.80;99.90;;;8.76;92.98;96409.13;10523922;28;1919;-75
2021/10/07 03:50:27;;;;;;;;;;;9.80;99.90;;;8.74;93.42;96407.75;10522134;28;1903;-75
2021/10/07 03:55:30;;;;;;;;;;;9.80;99.90;;;8.78;93.39;96419.59;10524625;28;1992;-76
2021/10/07 04:00:33;;;;;;;;;;;9.80;99.90;;;8.78;93.26;96424.97;10522659;28;1989;-75
2021/10/07 04:05:36;;;;;;;;;;;9.80;99.90;;;8.79;93.49;96426.59;10525631;28;1918;-76
2021/10/07 04:10:39;;;;;;;;;;;9.80;99.90;;;8.78;92.55;96427.63;10525806;28;1913;-75
2021/10/07 04:15:42;;;;;;;;;;;9.80;99.90;;;8.81;94.08;96424.47;10524604;28;2243;-76
2021/10/07 04:20:45;;;;;;;;;;;9.80;99.90;;;8.81;93.84;96425.28;10522681;28;2199;-75
2021/10/07 04:25:48;;;;;;;;;;;9.80;99.90;;;8.81;93.99;96424.47;10525908;28;2312;-75
2021/10/07 04:30:50;;;;;;;;;;;9.80;99.90;;;8.81;93.75;96425.28;10519596;28;1923;-75
2021/10/07 04:35:53;;;;;;;;;;;9.80;99.90;;;8.83;94.32;96430.41;10522878;28;1984;-75
2021/10/07 04:40:56;;;;;;;;;;;9.80;99.90;;;8.81;94.97;96437.88;10523098;28;1972;-75
2021/10/07 04:45:59;;;;;;;;;;;9.80;99.90;;;8.81;94.26;96446.72;10531959;28;1895;-75
2021/10/07 04:51:02;;;;;;;;;;;9.80;99.90;;;8.79;95.13;96450.72;10525539;28;2121;-75
2021/10/07 04:56:05;;;;;;;;;;;9.80;99.90;;;8.77;95.61;96442.09;10530003;28;1967;-76
2021/10/07 05:01:08;;;;;;;;;;;9.80;99.90;;;8.74;96.07;96439.94;10525040;28;1998;-75
2021/10/07 05:06:11;;;;;;;;;;;9.70;99.90;;;8.77;96.58;96440.22;10526823;28;1970;-75
2021/10/07 05:11:14;;;;;;;;;;;9.80;99.90;;;8.72;96.36;96434.00;10519385;28;2113;-75
2021/10/07 05:16:16;;;;;;;;;;;9.80;99.90;;;8.73;96.97;96433.75;10520606;28;1941;-75
2021/10/07 05:21:19;;;;;;;;;;;9.70;99.90;;;8.69;96.87;96448.69;10517962;28;1932;-75
2021/10/07 05:26:22;;;;;;;;;;;9.70;99.90;;;8.66;96.40;96446.53;10514585;28;1957;-75
2021/10/07 05:31:25;;;;;;;;;;;9.70;99.90;;;8.66;97.40;96454.56;10521708;28;1963;-74
2021/10/07 05:36:28;;;;;;;;;;;9.70;99.90;;;8.66;97.25;96455.38;10519975;28;2036;-75
2021/10/07 05:41:31;;;;;;;;;;;9.70;99.90;;;8.70;97.31;96460.22;10530760;28;1879;-78
2021/10/07 05:46:34;;;;;;;;;;;9.70;99.90;;;8.72;95.96;96455.44;10538584;28;1892;-77
2021/10/07 05:51:37;;;;;;;;;;;9.70;99.90;;;8.70;96.47;96450.31;10540353;28;1916;-78
2021/10/07 05:56:40;;;;;;;;;;;9.70;99.90;;;8.69;96.90;96453.25;10544920;28;2018;-78
2021/10/07 06:01:43;;;;;;;;;;;9.70;99.90;;;8.72;95.92;96458.13;10549648;28;1843;-77
2021/10/07 06:06:46;;;;;;;;;;;9.80;99.90;;;8.85;95.51;96461.28;10551391;28;1892;-77
2021/10/07 06:11:49;;;;;;;;;;;9.80;99.90;;;8.91;94.59;96462.19;10527069;28;1932;-79
2021/10/07 06:16:53;;;;;;;;;;;9.80;99.90;;;8.87;95.00;96467.19;10541765;28;2183;-79
2021/10/07 06:21:56;;;;;;;;;;;9.90;99.90;;;8.81;95.67;96467.38;10538008;28;1943;-80
2021/10/07 06:26:59;;;;;;;;;;;9.80;99.90;;;8.91;95.14;96472.91;10540702;28;1929;-80
2021/10/07 06:32:02;;;;;;;;;;;9.90;99.90;;;9.02;94.78;96471.97;10535809;28;1857;-80
2021/10/07 06:37:05;;;;;;;;;;;9.90;99.90;;;9.25;93.56;96479.00;10564913;28;1957;-79
2021/10/07 06:42:08;;;;;;;;;;;10.00;99.90;;;9.70;91.53;96486.00;10576178;28;1983;-80
2021/10/07 06:47:11;;;;;;;;;;;10.30;99.90;;;10.18;87.23;96489.75;10573673;28;1924;-79
2021/10/07 06:52:13;;;;;;;;;;;10.70;99.90;;;10.33;86.08;96494.53;10559908;28;1843;-78
2021/10/07 06:57:16;;;;;;;;;;;11.00;99.90;;;9.93;87.66;96499.19;10559833;28;1974;-80
2021/10/07 07:02:19;;;;;;;;;;;11.00;99.90;;;9.88;88.89;96501.81;10554500;28;2095;-80
2021/10/07 07:07:22;;;;;;;;;;;10.80;99.90;;;10.03;88.46;96498.47;10555986;28;1728;-79
2021/10/07 07:12:25;;;;;;;;;;;10.90;99.90;;;10.25;86.86;96509.22;10572207;28;1724;-79
2021/10/07 07:17:28;;;;;;;;;;;11.00;99.90;;;10.25;86.12;96512.72;10558348;28;1947;-79
2021/10/07 07:22:31;;;;;;;;;;;11.10;99.90;;;10.79;84.73;96509.16;10559698;28;2029;-78
2021/10/07 07:27:34;;;;;;;;;;;11.30;99.90;;;10.75;81.53;96519.66;10567457;28;1729;-78
2021/10/07 07:32:37;;;;;;;;;;;11.60;99.90;;;10.11;85.33;96535.63;10552696;28;1782;-77
2021/10/07 07:37:40;;;;;;;;;;;11.40;99.90;;;9.82;87.09;96535.03;10544651;28;1975;-78
2021/10/07 07:42:43;;;;;;;;;;;11.10;99.90;;;9.88;87.09;96531.34;10552065;28;1830;-78
2021/10/07 07:47:46;;;;;;;;;;;11.00;99.90;;;9.80;87.95;96533.63;10523026;28;1895;-77
2021/10/07 07:52:51;;;;;;;;;;;10.90;99.90;;;9.89;88.33;96532.97;10535181;28;1888;-78
2021/10/07 07:57:57;;;;;;;;;;;10.80;99.90;;;10.00;88.19;96539.28;10532878;28;1875;-78
2021/10/07 08:03:00;;;;;;;;;;;10.90;99.90;;;10.26;87.73;96549.28;10531060;28;1933;-78
2021/10/07 08:08:03;;;;;;;;;;;11.00;99.90;;;10.15;87.42;96546.69;10545890;28;2373;-78
2021/10/07 08:13:06;;;;;;;;;;;11.10;99.90;;;10.56;86.38;96558.72;10546297;28;1897;-79
2021/10/07 08:18:11;;;;;;;;;;;11.20;99.90;;;10.74;84.26;96560.22;10542354;28;1926;-78
2021/10/07 08:23:14;;;;;;;;;;;11.50;99.90;;;10.76;83.75;96548.16;10551104;28;1873;-78
2021/10/07 08:28:16;;;;;;;;;;;11.60;99.90;;;10.57;84.05;96564.91;10554350;28;1775;-80
2021/10/07 08:33:19;;;;;;;;;;;11.50;99.90;;;10.34;85.38;96566.00;10540451;28;1913;-77
2021/10/07 08:38:26;;;;;;;;;;;11.40;99.90;;;11.19;82.37;96565.16;10538717;28;1810;-80
2021/10/07 08:43:29;;;;;;;;;;;11.60;99.90;;;11.09;81.04;96573.16;10540666;28;1939;-80
2021/10/07 08:48:32;;;;;;;;;;;12.00;99.90;;;11.46;79.45;96569.69;10555012;28;1965;-78
2021/10/07 08:53:34;;;;;;;;;;;12.00;99.90;;;11.30;79.72;96566.88;10547339;28;1913;-77
2021/10/07 08:58:37;;;;;;;;;;;12.10;99.90;;;11.10;80.65;96570.22;10534172;28;1976;-78
2021/10/07 09:03:40;;;;;;;;;;;12.10;99.90;;;10.95;81.38;96562.03;10545099;28;1954;-78
2021/10/07 09:08:43;;;;;;;;;;;12.00;99.90;;;11.61;79.00;96556.28;10532989;28;1907;-78
2021/10/07 09:13:46;;;;;;;;;;;12.20;99.90;;;11.58;78.40;96562.22;10531147;28;1931;-76
2021/10/07 09:18:48;;;;;;;;;;;12.50;99.90;;;11.72;77.08;96568.75;10544022;28;2009;-77
2021/10/07 09:23:56;;;;;;;;;;;12.70;99.90;;;11.57;77.74;96568.66;10550611;28;1977;-79
2021/10/07 09:28:59;;;;;;;;;;;12.60;99.90;;;11.20;79.17;96574.88;10562727;28;2025;-78
2021/10/07 09:34:02;;;;;;;;;;;12.40;99.90;;;10.78;81.40;96572.91;10569674;28;1894;-79
2021/10/07 09:39:05;;;;;;;;;;;12.10;99.90;;;11.07;81.68;96572.63;10564030;28;1859;-79
2021/10/07 09:44:08;;;;;;;;;;;11.90;99.90;;;10.79;84.75;96569.16;10568753;28;1868;-78
2021/10/07 09:49:11;;;;;;;;;;;11.90;99.90;;;10.53;88.64;96575.34;10579744;28;1958;-81
2021/10/07 09:54:14;;;;;;;;;;;11.80;99.90;;;10.51;92.57;96572.13;10582319;28;2006;-79
2021/10/07 09:59:17;;;;;;;;;;;11.60;99.90;;;10.51;93.97;96570.22;10584241;28;1943;-79
2021/10/07 10:04:20;;;;;;;;;;;11.50;99.90;;;10.70;89.77;96568.00;10580876;28;1729;-78
2021/10/07 10:09:23;;;;;;;;;;;11.60;99.90;;;10.77;93.77;96567.78;10578384;28;1658;-78
2021/10/07 10:14:26;;;;;;;;;;;11.70;99.90;;;10.87;91.57;96561.69;10582762;28;1953;-78
2021/10/07 10:19:29;;;;;;;;;;;11.80;99.90;;;10.88;91.59;96560.59;10575904;28;1988;-78
2021/10/07 10:24:32;;;;;;;;;;;11.80;99.90;;;10.73;92.27;96567.47;10575078;28;2311;-78
2021/10/07 10:29:34;;;;;;;;;;;12.00;99.90;;;10.63;90.47;96570.09;10579331;28;2006;-78
2021/10/07 10:34:37;;;;;;;;;;;11.90;99.90;;;10.83;92.26;96558.69;10577553;28;2041;-78
2021/10/07 10:39:40;;;;;;;;;;;11.70;99.90;;;10.97;88.50;96559.88;10586425;28;1947;-78
2021/10/07 10:44:44;;;;;;;;;;;11.90;99.90;;;11.06;85.52;96568.28;10578610;28;2085;-78
2021/10/07 10:49:49;;;;;;;;;;;12.10;99.90;;;11.14;85.24;96565.16;10571299;28;1812;-77
2021/10/07 10:54:52;;;;;;;;;;;12.10;99.90;;;11.53;86.65;96573.75;10564838;28;2028;-78
2021/10/07 10:59:55;;;;;;;;;;;12.30;99.90;;;11.40;84.63;96568.81;10550879;28;2013;-79
2021/10/07 11:04:58;;;;;;;;;;;12.40;99.90;;;11.40;85.35;96574.22;10570165;28;1859;-78
2021/10/07 11:10:01;;;;;;;;;;;12.40;99.90;;;11.42;86.40;96571.25;10568811;28;1985;-79
2021/10/07 11:15:04;;;;;;;;;;;12.40;99.90;;;11.86;80.97;96559.16;10562326;28;1989;-78
2021/10/07 11:20:07;;;;;;;;;;;12.60;99.90;;;11.71;80.15;96552.88;10565484;28;1972;-79
2021/10/07 11:25:10;;;;;;;;;;;12.80;99.90;;;12.04;77.45;96552.50;10551846;28;2029;-79
2021/10/07 11:30:15;;;;;;;;;;;13.00;99.90;;;12.54;75.15;96550.22;10571837;28;1406;-79
2021/10/07 11:35:18;;;;;;;;;;;13.20;99.90;;;12.65;74.50;96552.66;10573578;28;1929;-79
2021/10/07 11:40:22;;;;;;;;;;;13.50;99.90;;;12.73;74.43;96556.72;10562761;28;1467;-80
2021/10/07 11:45:25;;;;;;;;;;;13.60;99.90;;;12.90;72.66;96542.97;10558479;28;2037;-78
2021/10/07 11:50:28;;;;;;;;;;;13.80;99.90;;;12.70;73.70;96538.38;10557068;28;1878;-79
2021/10/07 11:55:31;;;;;;;;;;;13.70;99.90;;;12.37;73.17;96537.78;10556931;28;1917;-78
2021/10/07 12:00:33;;;;;;;;;;;13.60;99.90;;;11.62;78.78;96539.06;10545637;28;2017;-77
2021/10/07 12:05:36;;;;;;;;;;;13.00;99.90;;;11.97;78.36;96534.97;10546584;28;1847;-77
2021/10/07 12:10:39;;;;;;;;;;;13.00;99.90;;;11.72;76.78;96539.13;10532508;28;1929;-77
2021/10/07 12:15:42;;;;;;;;;;;12.90;99.90;;;11.92;77.55;96534.94;10529710;28;2041;-76
2021/10/07 12:20:45;;;;;;;;;;;12.70;99.90;;;12.13;75.00;96523.16;10525252;28;1974;-77
2021/10/07 12:25:48;;;;;;;;;;;13.00;99.90;;;12.10;74.85;96527.19;10533740;28;2026;-76
2021/10/07 12:30:51;;;;;;;;;;;13.10;99.90;;;12.30;73.54;96515.66;10533890;28;1985;-77
2021/10/07 12:35:53;;;;;;;;;;;13.20;99.90;;;12.08;73.25;96526.63;10536810;28;1981;-77
2021/10/07 12:40:58;;;;;;;;;;;13.30;99.90;;;12.22;72.56;96523.47;10533650;28;1997;-77
2021/10/07 12:46:01;;;;;;;;;;;13.20;99.90;;;12.38;72.93;96519.72;10526441;28;2072;-76
2021/10/07 12:51:04;;;;;;;;;;;13.30;99.90;;;12.32;73.25;96526.16;10542016;28;1973;-77
2021/10/07 12:56:07;;;;;;;;;;;13.40;99.90;;;12.37;72.92;96529.69;10525155;28;2037;-77
2021/10/07 13:01:10;;;;;;;;;;;13.30;99.90;;;12.41;73.60;96528.09;10538453;28;1898;-77
2021/10/07 13:06:13;;;;;;;;;;;13.30;99.90;;;12.89;70.40;96525.16;10539315;28;1855;-78
2021/10/07 13:11:16;;;;;;;;;;;13.60;99.90;;;13.13;68.61;96522.72;10552039;28;1845;-78
2021/10/07 13:16:19;;;;;;;;;;;13.80;99.90;;;13.34;66.50;96532.44;10540330;28;2025;-77
2021/10/07 13:21:22;;;;;;;;;;;14.10;99.90;;;12.92;67.58;96530.84;10541814;28;2036;-77
2021/10/07 13:26:27;;;;;;;;;;;14.00;99.90;;;12.26;70.60;96538.81;10541772;28;1861;-78
2021/10/07 13:31:30;;;;;;;;;;;13.60;99.90;;;12.14;71.93;96535.53;10544163;28;1897;-78
2021/10/07 13:36:33;;;;;;;;;;;13.20;99.90;;;11.80;72.40;96538.63;10553028;28;2039;-77
2021/10/07 13:41:36;;;;;;;;;;;13.10;99.90;;;11.93;72.92;96540.06;10569362;28;1837;-78
2021/10/07 13:46:39;;;;;;;;;;;12.90;99.90;;;11.84;72.85;96547.03;10556836;28;1967;-78
2021/10/07 13:51:42;;;;;;;;;;;12.90;99.90;;;11.85;70.98;96549.44;10563920;28;1891;-78
2021/10/07 13:56:45;;;;;;;;;;;13.00;99.90;;;11.81;70.21;96552.94;10559743;28;1917;-78
2021/10/07 14:01:48;;;;;;;;;;;12.90;99.90;;;11.46;71.61;96540.88;10570046;28;1951;-79
2021/10/07 14:06:52;;;;;;;;;;;12.80;99.90;;;11.91;71.07;96550.28;10552412;28;1937;-78
2021/10/07 14:11:54;;;;;;;;;;;12.90;99.90;;;11.86;70.50;96559.16;10557758;28;1751;-76
2021/10/07 14:16:57;;;;;;;;;;;12.90;99.90;;;11.72;70.82;96560.66;10558106;28;1951;-78
2021/10/07 14:22:00;;;;;;;;;;;12.80;99.90;;;11.83;71.00;96559.69;10571614;28;1832;-77
2021/10/07 14:27:03;;;;;;;;;;;12.80;99.90;;;11.88;71.96;96559.69;10566331;28;1752;-76
2021/10/07 14:32:06;;;;;;;;;;;12.80;99.90;;;11.74;70.94;96561.22;10583802;28;1767;-76
2021/10/07 14:37:09;;;;;;;;;;;12.80;99.90;;;11.33;73.28;96562.88;10555901;28;1924;-76
2021/10/07 14:42:12;;;;;;;;;;;12.80;99.90;;;11.48;74.23;96562.16;10557512;28;1907;-77
2021/10/07 14:47:15;;;;;;;;;;;12.60;99.90;;;11.14;75.30;96561.66;10540330;28;1875;-77
2021/10/07 14:52:18;;;;;;;;;;;12.40;99.90;;;11.07;75.42;96559.97;10553381;28;1875;-77
2021/10/07 14:57:21;;;;;;;;;;;12.30;99.90;;;11.28;74.60;96563.63;10547442;28;1980;-76
2021/10/07 15:02:23;;;;;;;;;;;12.30;99.90;;;11.50;73.82;96554.59;10548953;28;1822;-77
2021/10/07 15:07:26;;;;;;;;;;;12.50;99.90;;;11.29;76.17;96559.88;10551239;28;1750;-76
2021/10/07 15:12:30;;;;;;;;;;;12.40;99.90;;;11.30;75.37;96561.47;10545309;28;1872;-78
2021/10/07 15:17:32;;;;;;;;;;;12.40;99.90;;;10.93;77.25;96557.97;10535525;28;2168;-77
2021/10/07 15:22:36;;;;;;;;;;;12.30;99.90;;;10.91;78.90;96570.88;10538509;28;1864;-76
2021/10/07 15:27:39;;;;;;;;;;;12.00;99.90;;;10.76;79.90;96569.66;10546091;28;1861;-77
2021/10/07 15:32:42;;;;;;;;;;;11.90;99.90;;;10.86;79.78;96562.75;10535995;28;1929;-77
2021/10/07 15:37:44;;;;;;;;;;;11.80;99.90;;;10.73;79.90;96559.41;10543599;28;1921;-78
2021/10/07 15:42:47;;;;;;;;;;;11.80;99.90;;;10.87;80.36;96558.97;10546947;28;1949;-78
2021/10/07 15:47:50;;;;;;;;;;;11.80;99.90;;;10.82;80.86;96552.50;10539938;28;1933;-77
2021/10/07 15:52:53;;;;;;;;;;;11.90;99.90;;;10.91;80.41;96555.53;10556524;28;1944;-78
2021/10/07 15:57:56;;;;;;;;;;;11.90;99.90;;;10.74;81.16;96549.47;10547525;28;1890;-77
2021/10/07 16:02:59;;;;;;;;;;;11.90;99.90;;;10.78;80.93;96562.16;10532260;28;1942;-78
2021/10/07 16:08:03;;;;;;;;;;;11.80;99.90;;;10.77;82.33;96554.34;10531833;28;1872;-76
2021/10/07 16:13:06;;;;;;;;;;;11.90;99.90;;;10.52;82.95;96563.78;10545613;28;1753;-77
2021/10/07 16:18:09;;;;;;;;;;;11.80;99.90;;;10.56;83.50;96561.41;10540589;28;1980;-78
2021/10/07 16:23:12;;;;;;;;;;;11.70;99.90;;;10.58;84.08;96556.59;10550708;28;2023;-78
2021/10/07 16:28:15;;;;;;;;;;;11.70;99.90;;;10.39;84.44;96568.75;10547989;28;1741;-78
2021/10/07 16:33:18;;;;;;;;;;;11.60;99.90;;;10.44;84.59;96571.50;10560034;28;1931;-78
2021/10/07 16:38:21;;;;;;;;;;;11.50;99.90;;;10.47;84.92;96577.16;10556411;28;1953;-79
2021/10/07 16:43:24;;;;;;;;;;;11.60;99.90;;;10.43;85.28;96580.59;10556685;28;1924;-77
2021/10/07 16:48:27;;;;;;;;;;;11.50;99.90;;;10.41;85.23;96578.19;10539338;28;1773;-78
2021/10/07 16:53:33;;;;;;;;;;;11.50;99.90;;;10.36;84.99;96583.50;10547041;28;1873;-77
2021/10/07 16:58:36;;;;;;;;;;;11.50;99.90;;;10.27;85.88;96588.50;10532929;28;1918;-77
2021/10/07 17:03:39;;;;;;;;;;;11.40;99.90;;;10.27;85.35;96596.56;10541429;28;1468;-77
2021/10/07 17:08:42;;;;;;;;;;;11.40;99.90;;;10.27;85.30;96596.56;10539892;28;1880;-77
2021/10/07 17:13:46;;;;;;;;;;;11.30;99.90;;;10.16;84.94;96602.03;10542846;28;1853;-79
2021/10/07 17:18:50;;;;;;;;;;;11.30;99.90;;;10.19;84.95;96607.75;10556853;28;1917;-78
2021/10/07 17:23:54;;;;;;;;;;;11.30;99.90;;;10.08;84.58;96615.91;10543402;28;1794;-78
2021/10/07 17:28:57;;;;;;;;;;;11.20;99.90;;;9.98;84.66;96622.78;10535658;28;1859;-77
2021/10/07 17:34:03;;;;;;;;;;;11.10;99.90;;;10.01;84.84;96616.91;10537462;28;1897;-76
2021/10/07 17:39:06;;;;;;;;;;;11.10;99.90;;;9.96;84.33;96618.72;10538678;28;1977;-76
2021/10/07 17:44:09;;;;;;;;;;;11.10;99.90;;;10.00;84.72;96625.22;10528156;28;1950;-77
2021/10/07 17:49:12;;;;;;;;;;;11.00;99.90;;;9.96;83.92;96626.78;10533221;28;1748;-75
2021/10/07 17:54:15;;;;;;;;;;;11.00;99.90;;;9.94;84.31;96626.22;10529670;28;1876;-75
2021/10/07 17:59:18;;;;;;;;;;;11.00;99.90;;;9.86;85.11;96632.00;10523309;28;1977;-76
2021/10/07 18:04:21;;;;;;;;;;;11.00;99.90;;;9.86;85.32;96624.78;10543863;28;1912;-81
2021/10/07 18:09:24;;;;;;;;;;;11.00;99.90;;;9.86;85.93;96629.31;10559820;28;1865;-79
2021/10/07 18:14:27;;;;;;;;;;;10.90;99.90;;;9.82;86.57;96622.84;10556296;28;1944;-81
2021/10/07 18:19:30;;;;;;;;;;;10.90;99.90;;;9.81;86.85;96631.94;10557726;28;1910;-82
2021/10/07 18:24:33;;;;;;;;;;;10.90;99.90;;;9.86;87.05;96634.69;10553887;28;1735;-78
2021/10/07 18:29:36;;;;;;;;;;;10.90;99.90;;;9.79;87.84;96636.75;10555159;28;1889;-81
2021/10/07 18:34:38;;;;;;;;;;;10.90;99.90;;;9.81;87.68;96642.69;10546991;28;1901;-81
2021/10/07 18:39:41;;;;;;;;;;;10.80;99.90;;;9.80;87.91;96630.31;10561765;28;2002;-78
2021/10/07 18:44:44;;;;;;;;;;;10.90;99.90;;;9.74;88.38;96627.56;10542900;28;1962;-76
2021/10/07 18:49:47;;;;;;;;;;;10.90;99.90;;;9.84;88.63;96620.69;10527010;28;1615;-77
2021/10/07 18:54:50;;;;;;;;;;;10.90;99.90;;;9.78;89.34;96616.31;10529898;28;1801;-75
2021/10/07 18:59:54;;;;;;;;;;;10.90;99.90;;;9.82;89.32;96622.84;10533808;28;1910;-75
2021/10/07 19:04:56;;;;;;;;;;;10.90;99.90;;;9.72;90.29;96626.97;10534805;28;1883;-76
2021/10/07 19:09:59;;;;;;;;;;;10.80;99.90;;;9.74;91.06;96619.50;10531977;28;1974;-76
2021/10/07 19:15:03;;;;;;;;;;;10.80;99.90;;;9.84;91.38;96629.56;10531415;28;1903;-77
2021/10/07 19:20:07;;;;;;;;;;;10.80;99.90;;;9.86;91.29;96630.16;10533939;28;1980;-75
2021/10/07 19:25:10;;;;;;;;;;;10.90;99.90;;;9.78;91.89;96632.44;10536621;28;1794;-76
2021/10/07 19:30:13;;;;;;;;;;;10.80;99.90;;;9.67;92.83;96636.84;10554994;28;1684;-74
2021/10/07 19:35:16;;;;;;;;;;;10.80;99.90;;;9.68;92.94;96639.28;10538619;28;1947;-76
2021/10/07 19:40:20;;;;;;;;;;;10.80;99.90;;;9.66;93.11;96638.72;10540326;28;1925;-76
2021/10/07 19:45:23;;;;;;;;;;;10.80;99.90;;;9.55;95.11;96634.28;10530444;28;1877;-76
2021/10/07 19:50:26;;;;;;;;;;;10.70;99.90;;;9.44;95.89;96632.50;10536454;28;1889;-77
2021/10/07 19:55:29;;;;;;;;;;;10.60;99.90;;;9.38;97.11;96638.84;10540539;28;1753;-78
2021/10/07 20:00:32;;;;;;;;;;;10.50;99.90;;;9.48;95.71;96637.13;10549100;28;1913;-76
2021/10/07 20:05:38;;;;;;;;;;;10.60;99.90;;;9.56;95.88;96635.91;10567970;28;1911;-78
2021/10/07 20:10:43;;;;;;;;;;;10.60;99.90;;;9.71;96.48;96627.25;10551351;28;1933;-77
2021/10/07 20:15:46;;;;;;;;;;;10.70;99.90;;;9.61;95.52;96625.25;10540076;28;1833;-77
2021/10/07 20:20:49;;;;;;;;;;;10.70;99.90;;;9.63;96.30;96620.44;10534455;28;1957;-77
2021/10/07 20:25:51;;;;;;;;;;;10.70;99.90;;;9.58;96.71;96627.59;10531775;28;1900;-77
2021/10/07 20:30:54;;;;;;;;;;;10.70;99.90;;;9.65;96.97;96617.50;10537274;28;1896;-76
2021/10/07 20:36:02;;;;;;;;;;;10.70;99.90;;;9.64;97.87;96619.38;10530204;28;1825;-77
2021/10/07 20:41:04;;;;;;;;;;;10.70;99.90;;;9.60;98.48;96615.53;10534558;28;2020;-78
2021/10/07 20:46:07;;;;;;;;;;;10.70;99.90;;;9.66;98.50;96625.28;10540172;28;1907;-77
2021/10/07 20:51:11;;;;;;;;;;;10.70;99.90;;;9.54;99.44;96626.44;10540602;28;1881;-77
2021/10/07 20:56:13;;;;;;;;;;;10.70;99.90;;;9.48;100.00;96620.22;10533791;28;1915;-77
2021/10/07 21:01:16;;;;;;;;;;;10.60;99.90;;;9.44;100.00;96616.38;10531887;28;1907;-77
2021/10/07 21:06:41;;;;;;;;;;;10.60;99.90;;;9.29;100.00;96627.72;10531045;28;1824;-76
2021/10/07 21:12:04;;;;;;;;;;;10.50;99.90;;;9.32;100.00;96629.06;10532508;28;1885;-77
2021/10/07 21:17:27;;;;;;;;;;;10.40;99.90;;;9.33;100.00;96620.78;10527708;28;1910;-77
2021/10/07 21:22:49;;;;;;;;;;;10.50;99.90;;;9.29;100.00;96627.72;10531102;28;1876;-76
2021/10/07 21:28:12;;;;;;;;;;;10.40;99.90;;;9.30;100.00;96615.09;10529750;28;1750;-77
2021/10/07 21:33:35;;;;;;;;;;;10.40;99.90;;;9.35;100.00;96617.84;10525953;28;1955;-78
2021/10/07 21:38:41;;;;;;;;;;;10.40;99.90;;;9.42;100.00;96621.19;10530541;28;1975;-77
2021/10/07 21:43:48;;;;;;;;;;;10.50;99.90;;;9.40;100.00;96615.25;10534089;28;1891;-78
2021/10/07 21:48:51;;;;;;;;;;;10.50;99.90;;;9.44;100.00;96616.38;10540244;28;1907;-77
2021/10/07 21:53:54;;;;;;;;;;;10.50;99.90;;;9.46;100.00;96608.88;10571062;28;1812;-77
2021/10/07 21:58:57;;;;;;;;;;;10.50;99.90;;;9.50;100.00;96610.03;10584660;28;1957;-77
2021/10/07 22:04:05;;;;;;;;;;;10.60;99.90;;;9.42;100.00;96607.78;10585632;28;1492;-77
2021/10/07 22:09:07;;;;;;;;;;;10.60;99.90;;;9.33;100.00;96609.22;10577355;28;1632;-76
2021/10/07 22:14:10;;;;;;;;;;;10.50;99.90;;;9.35;100.00;96602.59;10538761;28;1672;-77
2021/10/07 22:19:13;;;;;;;;;;;10.50;99.90;;;9.28;100.00;96603.78;10530326;28;1967;-76
2021/10/07 22:24:18;;;;;;;;;;;10.40;99.90;;;9.14;100.00;96605.97;10535587;28;1864;-76
2021/10/07 22:29:22;;;;;;;;;;;10.40;99.90;;;8.99;100.00;96603.88;10531189;28;2041;-76
2021/10/07 22:34:25;;;;;;;;;;;10.20;99.90;;;8.96;100.00;96604.34;10544662;28;1886;-75
2021/10/07 22:39:28;;;;;;;;;;;10.10;99.90;;;8.91;100.00;96597.03;10575002;28;1993;-74
2021/10/07 22:44:31;;;;;;;;;;;10.10;99.90;;;8.84;100.00;96603.59;10581583;28;1728;-73
2021/10/07 22:49:35;;;;;;;;;;;10.00;99.90;;;8.85;100.00;96603.38;10551160;28;1899;-75
2021/10/07 22:54:39;;;;;;;;;;;10.00;99.90;;;8.92;100.00;96608.59;10531870;28;1902;-76
2021/10/07 22:59:42;;;;;;;;;;;10.00;99.90;;;8.77;100.00;96603.75;10530057;28;1993;-74
2021/10/07 23:04:45;;;;;;;;;;;9.90;99.90;;;8.82;100.00;96611.06;10536123;28;1838;-78
2021/10/07 23:09:48;;;;;;;;;;;9.90;99.90;;;8.82;100.00;96603.03;10542641;28;2074;-76
2021/10/07 23:14:52;;;;;;;;;;;9.90;99.90;;;8.78;100.00;96607.25;10544688;28;1823;-78
2021/10/07 23:19:57;;;;;;;;;;;9.90;99.90;;;8.78;100.00;96604.56;10539456;28;1981;-77
2021/10/07 23:24:59;;;;;;;;;;;9.90;99.90;;;8.73;100.00;96605.31;10537934;28;1894;-77
2021/10/07 23:30:02;;;;;;;;;;;9.80;99.90;;;8.66;100.00;96605.47;10535835;28;2106;-78
2021/10/07 23:35:05;;;;;;;;;;;9.70;99.90;;;8.65;100.00;96603.84;10538719;28;1574;-77